This is the latest recevied weather packets stored in our database for station/object DL9TPA-1. If no packets are shown the sender has not sent any weather packets the latest 10 day(s).
| Time | Temp. | Humidity | Pressure | Rain* | Wind** | Luminosity | Snow |
|---|---|---|---|---|---|---|---|
| 1777985633 | 20° C | 76% | 1007.1 hPa | 0 mm | - | - | - |
| 1777985033 | 18.89° C | 79% | 1007.1 hPa | 0 mm | - | - | - |
| 1777984429 | 18.89° C | 78% | 1007.2 hPa | 0 mm | - | - | - |
| 1777983829 | 18.89° C | 76% | 1007.3 hPa | 0 mm | - | - | - |
| 1777983226 | 19.44° C | 76% | 1007.5 hPa | 0 mm | - | - | - |
| 1777982624 | 19.44° C | 76% | 1007.5 hPa | 0 mm | - | - | - |
| 1777982022 | 19.44° C | 76% | 1007.5 hPa | 0 mm | - | - | - |
| 1777981419 | 19.44° C | 78% | 1007.6 hPa | 0 mm | - | - | - |
| 1777980820 | 18.33° C | 80% | 1007.6 hPa | 0 mm | - | - | - |
| 1777980215 | 18.33° C | 79% | 1007.6 hPa | 0 mm | - | - | - |
| 1777979612 | 18.33° C | 78% | 1007.7 hPa | 0 mm | - | - | - |
| 1777979014 | 18.89° C | 79% | 1007.8 hPa | 0 mm | - | - | - |
| 1777978410 | 18.89° C | 79% | 1007.9 hPa | 0 mm | - | - | - |
| 1777977809 | 18.89° C | 78% | 1008 hPa | 0 mm | - | - | - |
| 1777977206 | 18.89° C | 80% | 1008.1 hPa | 0 mm | - | - | - |
| 1777976603 | 18.33° C | 81% | 1008.1 hPa | 0 mm | - | - | - |
| 1777976001 | 17.78° C | 80% | 1008.1 hPa | 0 mm | - | - | - |
| 1777975399 | 18.33° C | 79% | 1008 hPa | 0 mm | - | - | - |
| 1777974800 | 18.33° C | 77% | 1008.1 hPa | 0 mm | - | - | - |
| 1777974197 | 18.89° C | 76% | 1008.2 hPa | 0 mm | - | - | - |
| 1777973594 | 19.44° C | 74% | 1008.2 hPa | 0 mm | - | - | - |
| 1777972994 | 20° C | 73% | 1008.2 hPa | 0 mm | - | - | - |
| 1777972390 | 20° C | 74% | 1008.2 hPa | 0 mm | - | - | - |
| 1777971789 | 19.44° C | 76% | 1008.3 hPa | 0 mm | - | - | - |
| 1777971185 | 18.89° C | 78% | 1008.5 hPa | 0 mm | - | - | - |
* Rain latest hour (hover to see other rain measurements)
** Current wind speed in m/s (hover to see current wind gust speed)